Flight Track Log - Related Links

Times and Time Zones

All times are in EST time to prevent confusion due to time zone crossing. See the DAL2033 flight status page for this flight to view local times or setup timezone preferences in your user account.

Time Position Orientation Groundspeed Altitude Reporting Facility
EST Latitude Longitude Course Direction KTS MPH feet Rate Location/Type
Tue 06:10:11 PM 42.7700 -73.8067 191° South 146 168 1,900  Level Boston Center
Tue 06:10:45 PM 42.7969 -73.8136 349° North 180 207 4,200 3,959 Climbing Boston Center
Tue 06:11:48 PM 42.8394 -73.8500 328° Northwest 182 209 8,300 3,220 Climbing Boston Center
Tue 06:12:00 PM 42.5393 -74.0955 198° South  Level Estimated
Tue 06:12:48 PM 42.8628 -73.9300 292° West 252 290 10,800  Level Boston Center
Tue 06:13:00 PM 42.4692 -74.1928 180° South  Level Estimated
Tue 06:13:49 PM 42.8617 -74.0347 269° West 274 315 15,700  Level Boston Center
Tue 06:14:00 PM 42.3990 -74.2900 180° South  Level Estimated
Tue 06:14:52 PM 42.7803 -74.0814 203° Southwest 323 372 19,000  Level Boston Center
Tue 06:15:00 PM 42.3288 -74.3870 191° South  Level Estimated
Tue 06:15:53 PM 42.6964 -74.0881 183° South 332 382 20,800  Level Boston Center
Tue 06:16:54 PM 42.5942 -74.0825 178° South 385 443 22,700 1,983 Climbing Boston Center
Tue 06:17:54 PM 42.4558 -74.0644 174° South 416 479 24,800 2,410 Climbing Boston Center
Tue 06:18:56 PM 42.3356 -74.0478 174° South 434 499 27,600 2,634 Climbing Boston Center
Tue 06:19:57 PM 42.2200 -74.0350 175° South 422 486 30,200 1,887 Climbing Boston Center
Tue 06:21:00 PM 42.1086 -74.0419 183° South 407 468 31,500 1,452 Climbing Boston Center
Tue 06:22:01 PM 41.9956 -74.0486 183° South 407 468 33,200 1,377 Climbing Boston Center
Tue 06:23:02 PM 41.8836 -74.0553 183° South 406 467 34,300 992 Climbing Boston Center
Tue 06:24:02 PM 41.7722 -74.0600 182° South 406 467 35,200 843 Climbing Boston Center
Tue 06:25:03 PM 41.6372 -74.0747 185° South 407 468 36,000 387 Climbing Boston Center
Tue 06:26:06 PM 41.5456 -74.1356 206° Southwest 375 432 36,000  Level Boston Center
Tue 06:27:07 PM 41.4692 -74.2203 220° Southwest 359 413 36,000  Level Boston Center
Tue 06:28:08 PM 41.3903 -74.3039 219° Southwest 363 418 36,000  Level Boston Center
Tue 06:28:44 PM 41.3447 -74.3553 220° Southwest 369 425 36,000  Level New York Center
Tue 06:29:44 PM 41.2586 -74.4472 219° Southwest 363 418 36,000  Level New York Center
Tue 06:30:44 PM 41.1789 -74.5311 218° Southwest 363 418 36,000  Level New York Center
Tue 06:31:44 PM 41.0989 -74.6147 218° Southwest 363 418 36,000  Level New York Center
Tue 06:32:44 PM 41.0211 -74.7011 220° Southwest 363 418 36,000  Level New York Center
Tue 06:33:44 PM 40.9433 -74.7844 219° Southwest 368 423 36,000  Level New York Center
Tue 06:34:44 PM 40.8633 -74.8703 219° Southwest 368 423 36,000  Level New York Center
Tue 06:35:44 PM 40.7875 -74.9561 221° Southwest 368 423 36,000  Level New York Center
Tue 06:36:44 PM 40.7094 -75.0417 220° Southwest 368 423 36,000  Level New York Center
Tue 06:37:44 PM 40.6333 -75.1272 220° Southwest 373 429 36,000  Level New York Center
Tue 06:38:44 PM 40.5553 -75.2097 219° Southwest 367 422 36,000  Level New York Center
Tue 06:39:44 PM 40.4769 -75.2919 219° Southwest 367 422 36,000  Level New York Center
Tue 06:40:44 PM 40.4008 -75.3742 219° Southwest 367 422 36,000  Level New York Center
Tue 06:41:44 PM 40.3225 -75.4589 220° Southwest 367 422 36,000  Level New York Center
Tue 06:42:44 PM 40.2564 -75.5522 227° Southwest 362 417 36,000 -50 Level New York Center
Tue 06:43:44 PM 40.1919 -75.6456 228° Southwest 356 410 35,900  Descending New York Center
Tue 06:44:44 PM 40.1275 -75.7417 229° Southwest 356 410 36,000 50 Climbing New York Center
Tue 06:45:44 PM 40.0631 -75.8372 229° Southwest 356 410 36,000  Level New York Center
Tue 06:46:44 PM 40.0006 -75.9303 229° Southwest 356 410 36,000  Level New York Center
Tue 06:47:44 PM 39.9361 -76.0258 229° Southwest 351 404 36,000  Level New York Center
Tue 06:48:44 PM 39.8669 -76.1233 227° Southwest 351 404 36,000  Level New York Center
Tue 06:50:18 PM 39.7658 -76.2717 228° Southwest 345 397 36,000  Level Washington Center
Tue 06:51:19 PM 39.7028 -76.3708 230° Southwest 353 406 36,000 -49 Level Washington Center
Tue 06:52:21 PM 39.6333 -76.4672 227° Southwest 363 418 35,900  Descending Washington Center
Tue 06:53:18 PM 39.5617 -76.5633 226° Southwest 363 418 36,000 51 Climbing Washington Center
Tue 06:54:19 PM 39.4983 -76.6592 229° Southwest 363 418 36,000  Level Washington Center
Tue 06:55:20 PM 39.4331 -76.7522 228° Southwest 363 418 36,000  Level Washington Center
Tue 06:56:18 PM 39.3675 -76.8453 228° Southwest 357 411 36,000  Level Washington Center
Tue 06:57:19 PM 39.3019 -76.9381 228° Southwest 357 411 36,000  Level Washington Center
Tue 06:58:19 PM 39.2383 -77.0333 229° Southwest 357 411 36,000  Level Washington Center
Tue 06:59:20 PM 39.1706 -77.1256 227° Southwest 357 411 36,000  Level Washington Center
Tue 07:00:18 PM 39.1025 -77.2206 227° Southwest 357 411 36,000  Level Washington Center
Tue 07:01:19 PM 39.0367 -77.3125 227° Southwest 357 411 36,000  Level Washington Center
Tue 07:02:20 PM 38.9706 -77.4044 227° Southwest 357 411 36,000 50 Level Washington Center
Tue 07:03:18 PM 38.9067 -77.4964 228° Southwest 357 411 36,100  Climbing Washington Center
Tue 07:04:18 PM 38.8406 -77.5906 228° Southwest 357 411 36,000 -50 Descending Washington Center
Tue 07:05:19 PM 38.7808 -77.6714 227° Southwest 357 411 36,000  Level Washington Center
Tue 07:06:20 PM 38.7122 -77.7681 228° Southwest 362 417 36,000  Level Washington Center
Tue 07:07:18 PM 38.6481 -77.8592 228° Southwest 362 417 36,000  Level Washington Center
Tue 07:08:18 PM 38.5900 -77.9556 232° Southwest 357 411 36,000  Level Washington Center
Tue 07:09:19 PM 38.5317 -78.0519 232° Southwest 347 399 36,000  Level Washington Center
Tue 07:10:19 PM 38.4733 -78.1508 233° Southwest 347 399 36,000  Level Washington Center
Tue 07:11:20 PM 38.4192 -78.2469 234° Southwest 347 399 36,000  Level Washington Center
Tue 07:12:18 PM 38.3608 -78.3431 232° Southwest 347 399 36,000  Level Washington Center
Tue 07:13:19 PM 38.3022 -78.4414 233° Southwest 347 399 36,000  Level Washington Center
Tue 07:14:20 PM 38.2411 -78.5500 234° Southwest 347 399 36,000  Level Washington Center
Tue 07:15:20 PM 38.1822 -78.6481 233° Southwest 347 399 36,000  Level Washington Center
Tue 07:16:21 PM 38.1236 -78.7458 233° Southwest 352 405 36,000  Level Washington Center
Tue 07:17:18 PM 38.0650 -78.8306 229° Southwest 362 417 36,000  Level Washington Center
Tue 07:18:18 PM 37.9997 -78.9253 229° Southwest 362 417 36,000  Level Washington Center
Tue 07:19:19 PM 37.9344 -79.0197 229° Southwest 362 417 36,000  Level Washington Center
Tue 07:20:20 PM 37.8692 -79.1114 228° Southwest 362 417 36,000  Level Washington Center
Tue 07:21:18 PM 37.7994 -79.2133 229° Southwest 355 409 36,000  Level Washington Center
Tue 07:22:18 PM 37.7361 -79.3050 229° Southwest 355 409 36,000  Level Washington Center
Tue 07:23:19 PM 37.6689 -79.3933 226° Southwest 350 403 36,000  Level Washington Center
Tue 07:24:19 PM 37.6053 -79.4847 229° Southwest 350 403 36,000  Level Washington Center
Tue 07:25:20 PM 37.5439 -79.5758 230° Southwest 355 409 36,000  Level Washington Center
Tue 07:26:18 PM 37.4803 -79.6667 229° Southwest 349 402 36,000  Level Washington Center
Tue 07:27:19 PM 37.4144 -79.7625 229° Southwest 356 410 36,000  Level Washington Center
Tue 07:28:19 PM 37.3508 -79.8531 229° Southwest 356 410 36,000  Level Washington Center
Tue 07:30:45 PM 37.1972 -80.0656 228° Southwest 359 413 36,000  Level Atlanta Center
Tue 07:31:45 PM 37.1353 -80.1544 229° Southwest 354 407 36,000  Level Atlanta Center
Tue 07:32:45 PM 37.0633 -80.2542 228° Southwest 354 407 36,000  Level Atlanta Center
Tue 07:33:45 PM 36.9975 -80.3458 228° Southwest 354 407 36,000  Level Atlanta Center
Tue 07:34:45 PM 36.9292 -80.4372 227° Southwest 354 407 36,000  Level Atlanta Center
Tue 07:35:45 PM 36.8631 -80.5258 227° Southwest 354 407 36,000  Level Atlanta Center
Tue 07:36:45 PM 36.7947 -80.6169 227° Southwest 354 407 36,000  Level Atlanta Center
Tue 07:37:45 PM 36.7303 -80.6975 225° Southwest 359 413 36,000  Level Atlanta Center
Tue 07:38:45 PM 36.6617 -80.7858 226° Southwest 359 413 36,000  Level Atlanta Center
Tue 07:39:45 PM 36.5953 -80.8739 227° Southwest 354 407 36,000  Level Atlanta Center
Tue 07:40:45 PM 36.5306 -80.9617 227° Southwest 354 407 36,000  Level Atlanta Center
Tue 07:41:45 PM 36.4600 -81.0572 227° Southwest 349 402 36,000  Level Atlanta Center
Tue 07:42:45 PM 36.3911 -81.1425 225° Southwest 355 409 36,000  Level Atlanta Center
Tue 07:43:45 PM 36.3244 -81.2297 227° Southwest 355 409 36,000  Level Atlanta Center
Tue 07:44:45 PM 36.2575 -81.3197 227° Southwest 355 409 36,000  Level Atlanta Center
Tue 07:45:45 PM 36.1906 -81.4069 226° Southwest 355 409 36,000  Level Atlanta Center
Tue 07:46:45 PM 36.1236 -81.4939 226° Southwest 355 409 36,000  Level Atlanta Center
Tue 07:47:45 PM 36.0567 -81.5833 227° Southwest 355 409 36,000  Level Atlanta Center
Tue 07:48:45 PM 35.9917 -81.6700 227° Southwest 348 400 36,000  Level Atlanta Center
Tue 07:49:45 PM 35.9244 -81.7592 227° Southwest 353 406 36,000  Level Atlanta Center
Tue 07:50:45 PM 35.8572 -81.8456 226° Southwest 353 406 36,000  Level Atlanta Center
Tue 07:51:45 PM 35.7958 -81.9189 224° Southwest 353 406 36,000  Level Atlanta Center
Tue 07:52:45 PM 35.7306 -82.0075 228° Southwest 348 400 36,000 -50 Level Atlanta Center
Tue 07:53:45 PM 35.6631 -82.0886 224° Southwest 348 400 35,900 -500 Descending Atlanta Center
Tue 07:54:45 PM 35.5997 -82.1692 226° Southwest 348 400 35,000 -600 Descending Atlanta Center
Tue 07:55:45 PM 35.5319 -82.2497 224° Southwest 340 391 34,700 -400 Descending Atlanta Center
Tue 07:56:45 PM 35.4686 -82.3303 226° Southwest 340 391 34,200 -700 Descending Atlanta Center
Tue 07:57:45 PM 35.4092 -82.4053 226° Southwest 330 380 33,300 -900 Descending Atlanta Center
Tue 07:58:45 PM 35.3453 -82.4806 224° Southwest 324 373 32,400 -650 Descending Atlanta Center
Tue 07:59:45 PM 35.2794 -82.5506 221° Southwest 319 367 32,000 -200 Descending Atlanta Center
Tue 08:00:45 PM 35.2094 -82.6331 224° Southwest 319 367 32,000  Level Atlanta Center
Tue 08:01:45 PM 35.1436 -82.7053 222° Southwest 319 367 32,000 -300 Level Atlanta Center
Tue 08:02:45 PM 35.0775 -82.7747 221° Southwest 319 367 31,400 -1,350 Descending Atlanta Center
Tue 08:03:45 PM 35.0114 -82.8519 224° Southwest 319 367 29,300 -1,550 Descending Atlanta Center
Tue 08:04:45 PM 34.9453 -82.9214 221° Southwest 319 367 28,300 -1,000 Descending Atlanta Center
Tue 08:05:45 PM 34.8750 -82.9906 219° Southwest 324 373 27,300 -1,000 Descending Atlanta Center
Tue 08:06:45 PM 34.8089 -83.0647 223° Southwest 329 379 26,300 -900 Descending Atlanta Center
Tue 08:07:45 PM 34.7467 -83.1314 221° Southwest 334 384 25,500 -900 Descending Atlanta Center
Tue 08:08:45 PM 34.6806 -83.2053 223° Southwest 325 374 24,500 -750 Descending Atlanta Center
Tue 08:09:45 PM 34.6142 -83.2767 222° Southwest 325 374 24,000 -750 Descending Atlanta Center
Tue 08:10:45 PM 34.5478 -83.3453 220° Southwest 320 368 23,000 -800 Descending Atlanta Center
Tue 08:11:45 PM 34.4836 -83.4189 223° Southwest 320 368 22,400 -700 Descending Atlanta Center
Tue 08:12:45 PM 34.4150 -83.4900 221° Southwest 320 368 21,600 -1,000 Descending Atlanta Center
Tue 08:13:45 PM 34.3506 -83.5658 224° Southwest 320 368 20,400 -2,300 Descending Atlanta Center
Tue 08:14:45 PM 34.2694 -83.6467 219° Southwest 320 368 17,000 -2,700 Descending Atlanta Center
Tue 08:15:45 PM 34.1925 -83.7325 223° Southwest 355 409 15,000 -2,300 Descending Atlanta Center
Tue 08:16:45 PM 34.1175 -83.8106 221° Southwest 364 419 12,400 -1,862 Descending Atlanta Center
Tue 08:17:41 PM 34.0500 -83.8833 222° Southwest 350 403 11,400 -1,180 Descending Atlanta TRACON
Tue 08:18:47 PM 33.9667 -83.9667 220° Southwest 353 406 10,000 -726 Descending Atlanta TRACON
Tue 08:19:45 PM 33.8631 -83.9664 180° South 344 396 9,900 -305 Descending Atlanta Center
Tue 08:20:45 PM 33.7672 -83.9639 179° South 344 396 9,400 -750 Descending Atlanta Center
Tue 08:21:45 PM 33.6942 -83.9839 193° South 328 377 8,400 -1,250 Descending Atlanta Center
Tue 08:22:45 PM 33.6314 -84.0364 215° Southwest 271 312 6,900 -1,400 Descending Atlanta Center
Tue 08:23:45 PM 33.6314 -84.1136 270° West 230 265 5,600 -1,241 Descending Atlanta Center
Tue 08:24:41 PM 33.6333 -84.1833 272° West 204 235 4,500 -879 Descending Atlanta TRACON
Tue 08:25:41 PM 33.6333 -84.2500 270° West 193 222 3,900 -800 Descending Atlanta TRACON
Tue 08:26:41 PM 33.6333 -84.3167 270° West 178 205 2,900 -1,000 Descending Atlanta TRACON
Tue 08:27:47 PM 33.6333 -84.3667 270° West 157 181 1,800 -1,000 Descending Atlanta TRACON

Login

Don't have an account? Register now (free) for customized features, flight alerts, and more!